CA30 weather

CLOSED Commodore Heliport
San Francisco, California, United States

Public forecast

Using degrees Fahrenheit for public forecast. Weather courtesy of forecast.io.

METAR (pilot weather report)

Closest report is Metropolitan Oakland International Airport, 10.7 nm (19.7 km) ESE. Retrieved 2019/08/20 23:53 UTC (12 minutes ago):

KOAK 202353Z 27014KT 10SM FEW019 SCT200 21/14 A3000 RMK AO2 SLP157 T02060139 10222 20189 56009

TAF (pilot weather forecast)

Forecast is more than 12 hours old.

Closest forecast is Metropolitan Oakland International Airport, 10.7 nm (19.7 km) ESE. Retrieved 2019/08/20 00:33 UTC (24 hours ago):

TAF KOAK 202331Z 2100/2206 28012KT P6SM FEW015 SCT150 FM210500 28008KT P6SM SCT015 FM210700 27007KT P6SM BKN014 FM211100 27005KT P6SM OVC010 FM211830 26007KT P6SM SCT015 FM212100 28012KT P6SM FEW015 FM220400 28008KT P6SM FEW015